sensor_id;sensor_type;location;lat;lon;timestamp;pressure;altitude;pressure_sealevel;temperature;humidity
10145;BME280;5113;41.822;23.564;2023-03-15T00:00:07;-11010.84;;;2.77;100.00
10145;BME280;5113;41.822;23.564;2023-03-15T00:03:15;-11017.84;;;3.02;100.00
10145;BME280;5113;41.822;23.564;2023-03-15T00:06:22;-11023.59;;;3.23;100.00
10145;BME280;5113;41.822;23.564;2023-03-15T00:09:28;-11022.34;;;3.18;100.00
10145;BME280;5113;41.822;23.564;2023-03-15T00:12:34;-11021.22;;;3.14;100.00
10145;BME280;5113;41.822;23.564;2023-03-15T00:15:45;-11025.00;;;3.28;100.00
10145;BME280;5113;41.822;23.564;2023-03-15T00:18:53;-11018.84;;;3.06;100.00
10145;BME280;5113;41.822;23.564;2023-03-15T00:21:59;-11021.78;;;3.16;100.00
10145;BME280;5113;41.822;23.564;2023-03-15T00:25:06;-11018.28;;;3.04;100.00
10145;BME280;5113;41.822;23.564;2023-03-15T00:28:13;-11018.13;;;3.03;100.00
10145;BME280;5113;41.822;23.564;2023-03-15T00:31:22;-11016.72;;;2.98;100.00
10145;BME280;5113;41.822;23.564;2023-03-15T00:34:32;-11020.38;;;3.11;100.00
10145;BME280;5113;41.822;23.564;2023-03-15T00:37:38;-11017.44;;;3.01;100.00
10145;BME280;5113;41.822;23.564;2023-03-15T00:40:45;-11020.78;;;3.13;100.00
10145;BME280;5113;41.822;23.564;2023-03-15T00:43:51;-11016.88;;;2.98;100.00
10145;BME280;5113;41.822;23.564;2023-03-15T00:46:58;-11023.75;;;3.23;100.00
10145;BME280;5113;41.822;23.564;2023-03-15T00:50:06;-11023.59;;;3.23;100.00
10145;BME280;5113;41.822;23.564;2023-03-15T00:53:13;-11019.13;;;3.07;100.00
10145;BME280;5113;41.822;23.564;2023-03-15T00:56:21;-11026.00;;;3.31;100.00
10145;BME280;5113;41.822;23.564;2023-03-15T00:59:30;-11020.66;;;3.12;100.00
10145;BME280;5113;41.822;23.564;2023-03-15T01:02:39;-11011.69;;;2.80;100.00
10145;BME280;5113;41.822;23.564;2023-03-15T01:05:47;-11018.13;;;3.03;100.00
10145;BME280;5113;41.822;23.564;2023-03-15T01:08:54;-11020.50;;;3.12;100.00
10145;BME280;5113;41.822;23.564;2023-03-15T01:12:01;-10996.69;;;2.25;100.00
10145;BME280;5113;41.822;23.564;2023-03-15T01:15:09;-10991.91;;;2.08;100.00
10145;BME280;5113;41.822;23.564;2023-03-15T01:18:16;-11003.69;;;2.51;100.00
10145;BME280;5113;41.822;23.564;2023-03-15T01:21:24;-11018.00;;;3.03;100.00
10145;BME280;5113;41.822;23.564;2023-03-15T01:24:30;-10991.50;;;2.07;100.00
10145;BME280;5113;41.822;23.564;2023-03-15T01:27:37;-10991.22;;;2.06;100.00
10145;BME280;5113;41.822;23.564;2023-03-15T01:30:48;-11015.03;;;2.92;100.00
10145;BME280;5113;41.822;23.564;2023-03-15T01:33:55;-11018.84;;;3.06;100.00
10145;BME280;5113;41.822;23.564;2023-03-15T01:37:03;-11018.00;;;3.03;100.00
10145;BME280;5113;41.822;23.564;2023-03-15T01:40:12;-11022.47;;;3.19;100.00
10145;BME280;5113;41.822;23.564;2023-03-15T01:43:19;-11022.62;;;3.19;100.00
10145;BME280;5113;41.822;23.564;2023-03-15T01:46:28;-11019.53;;;3.08;100.00
10145;BME280;5113;41.822;23.564;2023-03-15T01:49:38;-11022.47;;;3.19;100.00
10145;BME280;5113;41.822;23.564;2023-03-15T01:52:46;-11019.53;;;3.08;100.00
10145;BME280;5113;41.822;23.564;2023-03-15T01:55:53;-11019.41;;;3.08;100.00
10145;BME280;5113;41.822;23.564;2023-03-15T01:59:00;-11023.31;;;3.22;100.00
10145;BME280;5113;41.822;23.564;2023-03-15T02:02:08;-11020.66;;;3.12;100.00
10145;BME280;5113;41.822;23.564;2023-03-15T02:05:21;-11025.72;;;3.30;100.00
10145;BME280;5113;41.822;23.564;2023-03-15T02:08:32;-11022.75;;;3.20;100.00
10145;BME280;5113;41.822;23.564;2023-03-15T02:11:41;-11025.28;;;3.29;100.00
10145;BME280;5113;41.822;23.564;2023-03-15T02:14:49;-11016.72;;;2.98;100.00
10145;BME280;5113;41.822;23.564;2023-03-15T02:17:58;-11018.56;;;3.05;100.00
10145;BME280;5113;41.822;23.564;2023-03-15T02:21:11;-11025.44;;;3.29;100.00
10145;BME280;5113;41.822;23.564;2023-03-15T02:24:27;-11024.03;;;3.24;100.00
10145;BME280;5113;41.822;23.564;2023-03-15T02:27:38;-11026.28;;;3.33;100.00
10145;BME280;5113;41.822;23.564;2023-03-15T02:30:46;-11022.06;;;3.17;100.00
10145;BME280;5113;41.822;23.564;2023-03-15T02:33:53;-11006.78;;;2.62;100.00
10145;BME280;5113;41.822;23.564;2023-03-15T02:37:00;-11021.78;;;3.16;100.00
10145;BME280;5113;41.822;23.564;2023-03-15T02:40:16;-11017.00;;;2.99;100.00
10145;BME280;5113;41.822;23.564;2023-03-15T02:43:27;-11022.62;;;3.19;100.00
10145;BME280;5113;41.822;23.564;2023-03-15T02:46:36;-11006.34;;;2.60;100.00
10145;BME280;5113;41.822;23.564;2023-03-15T02:49:48;-11015.59;;;2.94;100.00
10145;BME280;5113;41.822;23.564;2023-03-15T02:52:55;-11011.13;;;2.78;100.00
10145;BME280;5113;41.822;23.564;2023-03-15T02:56:01;-11017.56;;;3.01;100.00
10145;BME280;5113;41.822;23.564;2023-03-15T02:59:09;-11025.16;;;3.28;100.00
10145;BME280;5113;41.822;23.564;2023-03-15T03:02:16;-11026.97;;;3.35;100.00
10145;BME280;5113;41.822;23.564;2023-03-15T03:05:23;-11019.25;;;3.07;100.00
10145;BME280;5113;41.822;23.564;2023-03-15T03:08:29;-11018.41;;;3.04;100.00
10145;BME280;5113;41.822;23.564;2023-03-15T03:11:35;-11018.69;;;3.05;100.00
10145;BME280;5113;41.822;23.564;2023-03-15T03:14:43;-11014.19;;;2.89;100.00
10145;BME280;5113;41.822;23.564;2023-03-15T03:17:49;-11019.53;;;3.08;100.00
10145;BME280;5113;41.822;23.564;2023-03-15T03:20:57;-11019.53;;;3.08;100.00
10145;BME280;5113;41.822;23.564;2023-03-15T03:24:04;-11015.75;;;2.94;100.00
10145;BME280;5113;41.822;23.564;2023-03-15T03:27:10;-11011.41;;;2.79;100.00
10145;BME280;5113;41.822;23.564;2023-03-15T03:30:20;-11015.31;;;2.93;100.00
10145;BME280;5113;41.822;23.564;2023-03-15T03:33:26;-10994.44;;;2.17;100.00
10145;BME280;5113;41.822;23.564;2023-03-15T03:36:32;-11000.03;;;2.38;100.00
10145;BME280;5113;41.822;23.564;2023-03-15T03:39:39;-11006.63;;;2.61;100.00
10145;BME280;5113;41.822;23.564;2023-03-15T03:42:45;-11008.03;;;2.67;100.00
10145;BME280;5113;41.822;23.564;2023-03-15T03:45:53;-11006.63;;;2.61;100.00
10145;BME280;5113;41.822;23.564;2023-03-15T03:48:59;-11005.66;;;2.58;100.00
10145;BME280;5113;41.822;23.564;2023-03-15T03:52:05;-10999.91;;;2.37;100.00
10145;BME280;5113;41.822;23.564;2023-03-15T03:55:12;-10996.69;;;2.25;100.00
10145;BME280;5113;41.822;23.564;2023-03-15T03:58:19;-10985.88;;;1.86;100.00
10145;BME280;5113;41.822;23.564;2023-03-15T04:01:27;-10991.78;;;2.08;100.00
10145;BME280;5113;41.822;23.564;2023-03-15T04:04:33;-10989.81;;;2.01;100.00
10145;BME280;5113;41.822;23.564;2023-03-15T04:07:39;-10992.06;;;2.09;100.00
10145;BME280;5113;41.822;23.564;2023-03-15T04:10:49;-10995.97;;;2.23;100.00
10145;BME280;5113;41.822;23.564;2023-03-15T04:13:55;-11003.13;;;2.49;100.00
10145;BME280;5113;41.822;23.564;2023-03-15T04:17:03;-11005.38;;;2.57;100.00
10145;BME280;5113;41.822;23.564;2023-03-15T04:20:10;-11002.84;;;2.48;100.00
10145;BME280;5113;41.822;23.564;2023-03-15T04:23:17;-11001.31;;;2.42;100.00
10145;BME280;5113;41.822;23.564;2023-03-15T04:26:24;-11003.81;;;2.51;100.00
10145;BME280;5113;41.822;23.564;2023-03-15T04:29:30;-11001.59;;;2.43;100.00
10145;BME280;5113;41.822;23.564;2023-03-15T04:32:38;-11000.59;;;2.40;100.00
10145;BME280;5113;41.822;23.564;2023-03-15T04:35:46;-10998.50;;;2.32;100.00
10145;BME280;5113;41.822;23.564;2023-03-15T04:38:52;-11005.78;;;2.58;100.00
10145;BME280;5113;41.822;23.564;2023-03-15T04:42:08;-11010.13;;;2.74;100.00
10145;BME280;5113;41.822;23.564;2023-03-15T04:45:15;-11009.84;;;2.73;100.00
10145;BME280;5113;41.822;23.564;2023-03-15T04:48:23;-11008.31;;;2.68;100.00
10145;BME280;5113;41.822;23.564;2023-03-15T04:51:29;-11005.78;;;2.58;100.00
10145;BME280;5113;41.822;23.564;2023-03-15T04:54:36;-11009.16;;;2.71;100.00
10145;BME280;5113;41.822;23.564;2023-03-15T04:57:43;-11008.03;;;2.67;100.00
10145;BME280;5113;41.822;23.564;2023-03-15T05:00:51;-10999.91;;;2.37;100.00
10145;BME280;5113;41.822;23.564;2023-03-15T05:03:59;-11005.22;;;2.56;100.00
10145;BME280;5113;41.822;23.564;2023-03-15T05:07:07;-11011.13;;;2.78;100.00
10145;BME280;5113;41.822;23.564;2023-03-15T05:10:13;-10985.31;;;1.84;100.00
10145;BME280;5113;41.822;23.564;2023-03-15T05:13:19;-10980.84;;;1.68;100.00
10145;BME280;5113;41.822;23.564;2023-03-15T05:16:26;-10980.69;;;1.68;100.00
10145;BME280;5113;41.822;23.564;2023-03-15T05:19:34;-10985.88;;;1.86;100.00
10145;BME280;5113;41.822;23.564;2023-03-15T05:22:40;-10993.88;;;2.15;100.00
10145;BME280;5113;41.822;23.564;2023-03-15T05:25:49;-11002.16;;;2.45;100.00
10145;BME280;5113;41.822;23.564;2023-03-15T05:28:57;-11013.94;;;2.88;100.00
10145;BME280;5113;41.822;23.564;2023-03-15T05:32:04;-11014.47;;;2.90;100.00
10145;BME280;5113;41.822;23.564;2023-03-15T05:35:12;-11023.31;;;3.22;100.00
10145;BME280;5113;41.822;23.564;2023-03-15T05:38:19;-11032.00;;;3.53;100.00
10145;BME280;5113;41.822;23.564;2023-03-15T05:41:30;-11032.00;;;3.53;100.00
10145;BME280;5113;41.822;23.564;2023-03-15T05:44:37;-11031.03;;;3.50;100.00
10145;BME280;5113;41.822;23.564;2023-03-15T05:47:43;-11031.59;;;3.52;100.00
10145;BME280;5113;41.822;23.564;2023-03-15T05:50:50;-11037.50;;;3.73;100.00
10145;BME280;5113;41.822;23.564;2023-03-15T05:53:57;-11038.06;;;3.75;100.00
10145;BME280;5113;41.822;23.564;2023-03-15T05:57:03;-11043.66;;;3.95;100.00
10145;BME280;5113;41.822;23.564;2023-03-15T06:00:10;-11041.13;;;3.86;100.00
10145;BME280;5113;41.822;23.564;2023-03-15T06:03:18;-11042.13;;;3.90;100.00
10145;BME280;5113;41.822;23.564;2023-03-15T06:06:26;-11046.75;;;4.07;100.00
10145;BME280;5113;41.822;23.564;2023-03-15T06:09:32;-11049.28;;;4.16;100.00
10145;BME280;5113;41.822;23.564;2023-03-15T06:12:39;-11037.78;;;3.74;100.00
10145;BME280;5113;41.822;23.564;2023-03-15T06:15:45;-11049.28;;;4.16;100.00
10145;BME280;5113;41.822;23.564;2023-03-15T06:18:52;-11057.41;;;4.45;100.00
10145;BME280;5113;41.822;23.564;2023-03-15T06:22:00;-11041.97;;;3.89;100.00
10145;BME280;5113;41.822;23.564;2023-03-15T06:25:07;-11042.25;;;3.90;100.00
10145;BME280;5113;41.822;23.564;2023-03-15T06:28:14;-11047.59;;;4.10;100.00
10145;BME280;5113;41.822;23.564;2023-03-15T06:31:20;-11067.50;;;4.82;100.00
10145;BME280;5113;41.822;23.564;2023-03-15T06:34:26;-11068.06;;;4.84;100.00
10145;BME280;5113;41.822;23.564;2023-03-15T06:37:34;-11066.66;;;4.79;100.00
10145;BME280;5113;41.822;23.564;2023-03-15T06:40:41;-11087.16;;;5.53;100.00
10145;BME280;5113;41.822;23.564;2023-03-15T06:43:47;-11078.88;;;5.23;100.00
10145;BME280;5113;41.822;23.564;2023-03-15T06:46:53;-11055.59;;;4.39;100.00
10145;BME280;5113;41.822;23.564;2023-03-15T06:49:59;-11070.19;;;4.91;100.00
10145;BME280;5113;41.822;23.564;2023-03-15T06:53:06;-11098.41;;;5.93;100.00
10145;BME280;5113;41.822;23.564;2023-03-15T06:56:13;-11079.03;;;5.23;100.00
10145;BME280;5113;41.822;23.564;2023-03-15T06:59:19;-11092.38;;;5.72;100.00
10145;BME280;5113;41.822;23.564;2023-03-15T07:02:26;-11085.34;;;5.46;100.00
10145;BME280;5113;41.822;23.564;2023-03-15T07:05:32;-11092.94;;;5.74;100.00
10145;BME280;5113;41.822;23.564;2023-03-15T07:08:39;-11089.69;;;5.62;100.00
10145;BME280;5113;41.822;23.564;2023-03-15T07:11:46;-11112.16;;;6.43;98.37
10145;BME280;5113;41.822;23.564;2023-03-15T07:14:52;-11123.41;;;6.84;95.75
10145;BME280;5113;41.822;23.564;2023-03-15T07:17:59;-11149.25;;;7.77;90.20
10145;BME280;5113;41.822;23.564;2023-03-15T07:21:06;-11147.97;;;7.73;87.60
10145;BME280;5113;41.822;23.564;2023-03-15T07:24:13;-11124.66;;;6.88;96.12
10145;BME280;5113;41.822;23.564;2023-03-15T07:27:20;-11127.34;;;6.98;96.18
10145;BME280;5113;41.822;23.564;2023-03-15T07:30:27;-11118.91;;;6.68;97.99
10145;BME280;5113;41.822;23.564;2023-03-15T07:33:33;-11155.00;;;7.98;88.46
10145;BME280;5113;41.822;23.564;2023-03-15T07:36:41;-11164.16;;;8.31;85.80
10145;BME280;5113;41.822;23.564;2023-03-15T07:39:48;-11158.66;;;8.11;86.89
10145;BME280;5113;41.822;23.564;2023-03-15T07:42:55;-11147.69;;;7.72;90.20
10145;BME280;5113;41.822;23.564;2023-03-15T07:46:01;-11152.47;;;7.89;89.58
10145;BME280;5113;41.822;23.564;2023-03-15T07:49:08;-11139.97;;;7.44;91.37
10145;BME280;5113;41.822;23.564;2023-03-15T07:52:14;-11153.59;;;7.93;88.35
10145;BME280;5113;41.822;23.564;2023-03-15T07:55:22;-11150.38;;;7.81;88.76
10145;BME280;5113;41.822;23.564;2023-03-15T07:58:29;-11170.91;;;8.55;85.23
10145;BME280;5113;41.822;23.564;2023-03-15T08:21:30;-11163.03;;;8.27;87.13
10145;BME280;5113;41.822;23.564;2023-03-15T08:24:37;-11166.41;;;8.39;84.64
10145;BME280;5113;41.822;23.564;2023-03-15T08:27:44;-11142.94;;;7.54;90.27
10145;BME280;5113;41.822;23.564;2023-03-15T08:30:50;-11157.97;;;8.09;87.89
10145;BME280;5113;41.822;23.564;2023-03-15T08:33:57;-11157.97;;;8.09;86.49
10145;BME280;5113;41.822;23.564;2023-03-15T08:37:05;-11161.34;;;8.21;86.64
10145;BME280;5113;41.822;23.564;2023-03-15T08:40:11;-11162.88;;;8.26;85.19
10145;BME280;5113;41.822;23.564;2023-03-15T08:43:18;-11161.75;;;8.22;87.64
10145;BME280;5113;41.822;23.564;2023-03-15T08:46:24;-11158.81;;;8.12;85.33
10145;BME280;5113;41.822;23.564;2023-03-15T08:49:31;-11154.88;;;7.98;87.07
10145;BME280;5113;41.822;23.564;2023-03-15T08:52:40;-11171.47;;;8.57;81.57
10145;BME280;5113;41.822;23.564;2023-03-15T08:55:47;-11144.47;;;7.60;84.41
10145;BME280;5113;41.822;23.564;2023-03-15T08:58:53;-11162.19;;;8.24;82.97
10145;BME280;5113;41.822;23.564;2023-03-15T09:02:00;-11159.66;;;8.15;83.83
10145;BME280;5113;41.822;23.564;2023-03-15T09:05:07;-11163.59;;;8.29;82.45
10145;BME280;5113;41.822;23.564;2023-03-15T09:08:17;-11166.81;;;8.41;82.26
10145;BME280;5113;41.822;23.564;2023-03-15T09:11:25;-11175.94;;;8.74;80.20
10145;BME280;5113;41.822;23.564;2023-03-15T09:14:31;-11185.22;;;9.07;77.74
10145;BME280;5113;41.822;23.564;2023-03-15T09:17:37;-11160.91;;;8.19;79.35
10145;BME280;5113;41.822;23.564;2023-03-15T09:20:44;-11169.34;;;8.50;78.61
10145;BME280;5113;41.822;23.564;2023-03-15T09:23:52;-11182.97;;;8.99;77.86
10145;BME280;5113;41.822;23.564;2023-03-15T09:26:58;-11184.09;;;9.03;77.23
10145;BME280;5113;41.822;23.564;2023-03-15T09:30:05;-11167.25;;;8.42;79.81
10145;BME280;5113;41.822;23.564;2023-03-15T09:33:12;-11167.66;;;8.44;80.21
10145;BME280;5113;41.822;23.564;2023-03-15T09:36:18;-11170.19;;;8.53;78.04
10145;BME280;5113;41.822;23.564;2023-03-15T09:39:26;-11182.69;;;8.98;67.37
10145;BME280;5113;41.822;23.564;2023-03-15T09:42:40;-11171.19;;;8.56;65.93
10145;BME280;5113;41.822;23.564;2023-03-15T09:46:05;-11174.41;;;8.68;67.41
10145;BME280;5113;41.822;23.564;2023-03-15T09:49:19;-11176.09;;;8.74;65.27
10145;BME280;5113;41.822;23.564;2023-03-15T09:52:33;-11178.47;;;8.83;64.55
10145;BME280;5113;41.822;23.564;2023-03-15T09:55:45;-11190.00;;;9.24;62.65
10145;BME280;5113;41.822;23.564;2023-03-15T09:58:57;-11203.66;;;9.74;56.94
10145;BME280;5113;41.822;23.564;2023-03-15T10:02:15;-11185.78;;;9.09;58.57
10145;BME280;5113;41.822;23.564;2023-03-15T10:05:31;-11187.34;;;9.15;62.24
10145;BME280;5113;41.822;23.564;2023-03-15T10:08:38;-11178.47;;;8.83;63.33
10145;BME280;5113;41.822;23.564;2023-03-15T10:11:55;-11181.56;;;8.94;65.00
10145;BME280;5113;41.822;23.564;2023-03-15T10:15:27;-11181.84;;;8.95;65.96
10145;BME280;5113;41.822;23.564;2023-03-15T10:18:50;-11178.75;;;8.84;65.91
10145;BME280;5113;41.822;23.564;2023-03-15T10:22:01;-11184.66;;;9.05;67.09
10145;BME280;5113;41.822;23.564;2023-03-15T10:25:14;-11174.97;;;8.70;63.41
10145;BME280;5113;41.822;23.564;2023-03-15T10:28:27;-11177.22;;;8.78;66.34
10145;BME280;5113;41.822;23.564;2023-03-15T10:31:38;-11179.88;;;8.88;64.93
10145;BME280;5113;41.822;23.564;2023-03-15T10:34:50;-11180.72;;;8.91;63.98
10145;BME280;5113;41.822;23.564;2023-03-15T10:37:57;-11171.31;;;8.57;64.58
10145;BME280;5113;41.822;23.564;2023-03-15T10:41:05;-11173.97;;;8.67;61.89
10145;BME280;5113;41.822;23.564;2023-03-15T10:44:17;-11171.88;;;8.59;64.84
10145;BME280;5113;41.822;23.564;2023-03-15T10:47:25;-11173.72;;;8.66;62.13
10145;BME280;5113;41.822;23.564;2023-03-15T10:50:32;-11184.66;;;9.05;64.25
10145;BME280;5113;41.822;23.564;2023-03-15T10:53:50;-11185.94;;;9.10;61.21
10145;BME280;5113;41.822;23.564;2023-03-15T10:57:00;-11186.50;;;9.12;62.24
10145;BME280;5113;41.822;23.564;2023-03-15T11:00:21;-11191.41;;;9.30;62.05
10145;BME280;5113;41.822;23.564;2023-03-15T11:03:31;-11201.41;;;9.66;61.27
10145;BME280;5113;41.822;23.564;2023-03-15T11:06:40;-11207.31;;;9.87;58.38
10145;BME280;5113;41.822;23.564;2023-03-15T11:09:52;-11214.91;;;10.14;58.32
10145;BME280;5113;41.822;23.564;2023-03-15T11:13:10;-11221.38;;;10.38;58.36
10145;BME280;5113;41.822;23.564;2023-03-15T11:16:20;-11212.78;;;10.07;56.96
10145;BME280;5113;41.822;23.564;2023-03-15T11:19:28;-11218.13;;;10.26;58.25
10145;BME280;5113;41.822;23.564;2023-03-15T11:22:35;-11232.75;;;10.79;58.89
10145;BME280;5113;41.822;23.564;2023-03-15T11:25:42;-11229.37;;;10.67;57.55
10145;BME280;5113;41.822;23.564;2023-03-15T11:28:50;-11231.34;;;10.74;57.57
10145;BME280;5113;41.822;23.564;2023-03-15T11:32:00;-11219.97;;;10.33;54.94
10145;BME280;5113;41.822;23.564;2023-03-15T11:35:11;-11238.66;;;11.00;55.61
10145;BME280;5113;41.822;23.564;2023-03-15T11:38:25;-11232.75;;;10.79;54.08
10145;BME280;5113;41.822;23.564;2023-03-15T11:41:36;-11239.38;;;11.03;55.21
10145;BME280;5113;41.822;23.564;2023-03-15T11:44:47;-11246.13;;;11.27;55.92
10145;BME280;5113;41.822;23.564;2023-03-15T11:48:00;-11242.59;;;11.14;55.57
10145;BME280;5113;41.822;23.564;2023-03-15T11:51:10;-11232.47;;;10.78;55.43
10145;BME280;5113;41.822;23.564;2023-03-15T11:54:18;-11220.09;;;10.33;54.26
10145;BME280;5113;41.822;23.564;2023-03-15T11:57:40;-11241.47;;;11.10;53.52
10145;BME280;5113;41.822;23.564;2023-03-15T12:00:49;-11243.19;;;11.16;53.54
10145;BME280;5113;41.822;23.564;2023-03-15T12:07:56;-11252.19;;;11.49;53.28
10145;BME280;5113;41.822;23.564;2023-03-15T12:11:09;-11257.53;;;11.68;52.31
10145;BME280;5113;41.822;23.564;2023-03-15T12:14:26;-11263.31;;;11.89;53.54
10145;BME280;5113;41.822;23.564;2023-03-15T12:17:41;-11247.69;;;11.33;53.39
10145;BME280;5113;41.822;23.564;2023-03-15T12:21:06;-11258.50;;;11.72;50.97
10145;BME280;5113;41.822;23.564;2023-03-15T12:24:20;-11272.72;;;12.23;49.99
10145;BME280;5113;41.822;23.564;2023-03-15T12:27:28;-11259.50;;;11.75;51.44
10145;BME280;5113;41.822;23.564;2023-03-15T12:30:38;-11253.88;;;11.55;50.66
10145;BME280;5113;41.822;23.564;2023-03-15T12:33:47;-11236.72;;;10.93;50.79
10145;BME280;5113;41.822;23.564;2023-03-15T12:36:56;-11209.13;;;9.93;50.86
10145;BME280;5113;41.822;23.564;2023-03-15T12:55:57;-11216.59;;;10.20;56.26
10145;BME280;5113;41.822;23.564;2023-03-15T13:02:53;-11215.31;;;10.16;55.58
10145;BME280;5113;41.822;23.564;2023-03-15T13:06:11;-11229.37;;;10.67;53.73
10145;BME280;5113;41.822;23.564;2023-03-15T13:13:07;-11226.56;;;10.56;53.88
10145;BME280;5113;41.822;23.564;2023-03-15T13:16:24;-11235.59;;;10.89;54.85
10145;BME280;5113;41.822;23.564;2023-03-15T13:19:37;-11222.63;;;10.42;56.75
10145;BME280;5113;41.822;23.564;2023-03-15T13:22:53;-11227.84;;;10.61;58.59
10145;BME280;5113;41.822;23.564;2023-03-15T13:26:12;-11244.16;;;11.20;57.09
10145;BME280;5113;41.822;23.564;2023-03-15T13:29:26;-11247.53;;;11.32;55.63
10145;BME280;5113;41.822;23.564;2023-03-15T13:32:32;-11223.06;;;10.44;55.10
10145;BME280;5113;41.822;23.564;2023-03-15T13:35:42;-11230.78;;;10.72;55.43
10145;BME280;5113;41.822;23.564;2023-03-15T13:38:50;-11238.25;;;10.99;54.18
10145;BME280;5113;41.822;23.564;2023-03-15T13:41:58;-11243.19;;;11.16;52.79
10145;BME280;5113;41.822;23.564;2023-03-15T13:45:14;-11251.63;;;11.47;53.25
10145;BME280;5113;41.822;23.564;2023-03-15T13:48:20;-11242.03;;;11.12;52.75
10145;BME280;5113;41.822;23.564;2023-03-15T13:51:29;-11227.41;;;10.59;54.13
10145;BME280;5113;41.822;23.564;2023-03-15T13:54:36;-11226.84;;;10.57;54.96
10145;BME280;5113;41.822;23.564;2023-03-15T13:57:42;-11243.47;;;11.17;53.32
10145;BME280;5113;41.822;23.564;2023-03-15T14:00:57;-11240.34;;;11.06;54.96
10145;BME280;5113;41.822;23.564;2023-03-15T14:04:07;-11231.91;;;10.76;52.43
10145;BME280;5113;41.822;23.564;2023-03-15T14:07:24;-11235.03;;;10.87;52.09
10145;BME280;5113;41.822;23.564;2023-03-15T14:10:32;-11237.56;;;10.96;48.71
10145;BME280;5113;41.822;23.564;2023-03-15T14:13:49;-11234.75;;;10.86;48.70
10145;BME280;5113;41.822;23.564;2023-03-15T14:16:58;-11224.19;;;10.48;54.30
10145;BME280;5113;41.822;23.564;2023-03-15T14:20:15;-11225.16;;;10.51;57.04
10145;BME280;5113;41.822;23.564;2023-03-15T14:23:23;-11221.78;;;10.39;58.45
10145;BME280;5113;41.822;23.564;2023-03-15T14:26:30;-11215.59;;;10.17;60.21
10145;BME280;5113;41.822;23.564;2023-03-15T14:29:45;-11204.63;;;9.77;60.91
10145;BME280;5113;41.822;23.564;2023-03-15T14:32:54;-11211.81;;;10.03;61.27
10145;BME280;5113;41.822;23.564;2023-03-15T14:36:04;-11217.44;;;10.23;61.44
10145;BME280;5113;41.822;23.564;2023-03-15T14:39:17;-11222.34;;;10.41;60.90
10145;BME280;5113;41.822;23.564;2023-03-15T14:42:24;-11227.00;;;10.58;60.20
10145;BME280;5113;41.822;23.564;2023-03-15T14:45:32;-11219.53;;;10.31;61.69
10145;BME280;5113;41.822;23.564;2023-03-15T14:48:40;-11214.06;;;10.11;63.20
10145;BME280;5113;41.822;23.564;2023-03-15T14:51:50;-11211.25;;;10.01;62.70
10145;BME280;5113;41.822;23.564;2023-03-15T14:54:57;-11219.81;;;10.32;63.07
10145;BME280;5113;41.822;23.564;2023-03-15T14:58:10;-11212.38;;;10.05;62.93
10145;BME280;5113;41.822;23.564;2023-03-15T15:01:19;-11205.47;;;9.80;64.03
10145;BME280;5113;41.822;23.564;2023-03-15T15:04:31;-11205.47;;;9.80;63.45
10145;BME280;5113;41.822;23.564;2023-03-15T15:07:38;-11209.28;;;9.94;63.55
10145;BME280;5113;41.822;23.564;2023-03-15T15:10:46;-11212.78;;;10.07;62.96
10145;BME280;5113;41.822;23.564;2023-03-15T15:13:53;-11212.09;;;10.04;63.36
10145;BME280;5113;41.822;23.564;2023-03-15T15:17:00;-11210.25;;;9.98;61.90
10145;BME280;5113;41.822;23.564;2023-03-15T15:20:09;-11209.13;;;9.93;62.21
10145;BME280;5113;41.822;23.564;2023-03-15T15:23:18;-11204.63;;;9.77;64.36
10145;BME280;5113;41.822;23.564;2023-03-15T15:26:27;-11209.28;;;9.94;63.53
10145;BME280;5113;41.822;23.564;2023-03-15T15:29:33;-11206.88;;;9.85;61.86
10145;BME280;5113;41.822;23.564;2023-03-15T15:32:40;-11212.50;;;10.06;62.96
10145;BME280;5113;41.822;23.564;2023-03-15T15:35:52;-11209.28;;;9.94;62.86
10145;BME280;5113;41.822;23.564;2023-03-15T15:38:59;-11201.53;;;9.66;62.77
10145;BME280;5113;41.822;23.564;2023-03-15T15:42:10;-11200.69;;;9.63;63.20
10145;BME280;5113;41.822;23.564;2023-03-15T15:45:17;-11203.78;;;9.74;64.96
10145;BME280;5113;41.822;23.564;2023-03-15T15:48:23;-11197.59;;;9.52;66.46
10145;BME280;5113;41.822;23.564;2023-03-15T15:51:34;-11195.91;;;9.46;66.10
10145;BME280;5113;41.822;23.564;2023-03-15T15:54:41;-11192.69;;;9.34;67.64
10145;BME280;5113;41.822;23.564;2023-03-15T15:57:49;-11196.63;;;9.48;66.17
10145;BME280;5113;41.822;23.564;2023-03-15T16:00:55;-11197.31;;;9.51;66.20
10145;BME280;5113;41.822;23.564;2023-03-15T16:04:01;-11182.56;;;8.98;68.56
10145;BME280;5113;41.822;23.564;2023-03-15T16:07:09;-11185.94;;;9.10;69.24
10145;BME280;5113;41.822;23.564;2023-03-15T16:10:18;-11184.66;;;9.05;69.07
10145;BME280;5113;41.822;23.564;2023-03-15T16:13:25;-11189.59;;;9.23;68.26
10145;BME280;5113;41.822;23.564;2023-03-15T16:16:31;-11188.88;;;9.20;68.25
10145;BME280;5113;41.822;23.564;2023-03-15T16:19:37;-11185.94;;;9.10;72.19
10145;BME280;5113;41.822;23.564;2023-03-15T16:22:47;-11185.50;;;9.08;71.82
10145;BME280;5113;41.822;23.564;2023-03-15T16:25:54;-11178.63;;;8.83;75.90
10145;BME280;5113;41.822;23.564;2023-03-15T16:29:04;-11178.47;;;8.83;70.19
10145;BME280;5113;41.822;23.564;2023-03-15T16:32:15;-11178.47;;;8.83;69.53
10145;BME280;5113;41.822;23.564;2023-03-15T16:35:36;-11175.38;;;8.72;68.90
10145;BME280;5113;41.822;23.564;2023-03-15T16:38:44;-11174.25;;;8.68;67.89
10145;BME280;5113;41.822;23.564;2023-03-15T16:41:51;-11165.28;;;8.35;69.64
10145;BME280;5113;41.822;23.564;2023-03-15T16:44:57;-11162.75;;;8.26;70.75
10145;BME280;5113;41.822;23.564;2023-03-15T16:48:03;-11163.59;;;8.29;68.12
10145;BME280;5113;41.822;23.564;2023-03-15T16:51:12;-11159.22;;;8.13;70.28
10145;BME280;5113;41.822;23.564;2023-03-15T16:54:21;-11156.69;;;8.04;72.84
10145;BME280;5113;41.822;23.564;2023-03-15T16:57:44;-11161.63;;;8.22;70.21
10145;BME280;5113;41.822;23.564;2023-03-15T17:00:50;-11158.81;;;8.12;71.24
10145;BME280;5113;41.822;23.564;2023-03-15T17:03:56;-11158.25;;;8.10;73.64
10145;BME280;5113;41.822;23.564;2023-03-15T17:07:02;-11152.19;;;7.88;74.10
10145;BME280;5113;41.822;23.564;2023-03-15T17:10:19;-11153.19;;;7.91;75.05
10145;BME280;5113;41.822;23.564;2023-03-15T17:13:28;-11150.78;;;7.83;74.89
10145;BME280;5113;41.822;23.564;2023-03-15T17:16:35;-11151.50;;;7.85;75.53